createdAt,value
2019-05-23T00:01:24.827Z,86.60
2019-05-23T00:03:54.971Z,87.10
2019-05-23T00:06:25.528Z,87.40
2019-05-23T00:08:55.355Z,88.00
2019-05-23T00:11:26.079Z,89.30
2019-05-23T00:13:58.384Z,90.10
2019-05-23T00:16:28.668Z,90.10
2019-05-23T00:19:00.541Z,89.60
2019-05-23T00:21:30.611Z,89.50
2019-05-23T00:24:00.108Z,89.30
2019-05-23T00:26:29.934Z,89.20
2019-05-23T00:29:09.479Z,89.90
2019-05-23T00:31:37.121Z,90.00
2019-05-23T00:34:06.790Z,90.50
2019-05-23T00:36:35.605Z,91.00
2019-05-23T00:39:08.680Z,91.30
2019-05-23T00:41:39.547Z,91.60
2019-05-23T00:44:08.436Z,91.70
2019-05-23T00:46:38.158Z,91.60
2019-05-23T00:49:08.280Z,91.50
2019-05-23T00:51:36.932Z,91.60
2019-05-23T00:54:06.285Z,91.80
2019-05-23T00:56:35.933Z,91.90
2019-05-23T00:59:05.960Z,91.90
2019-05-23T01:01:34.936Z,91.90
2019-05-23T01:04:04.023Z,92.00
2019-05-23T01:06:34.826Z,92.00
2019-05-23T01:09:05.158Z,92.10
2019-05-23T01:11:34.318Z,92.10
2019-05-23T01:14:03.466Z,92.20
2019-05-23T01:16:32.803Z,92.20
2019-05-23T01:19:01.803Z,92.30
2019-05-23T01:21:41.097Z,92.30
2019-05-23T01:24:17.177Z,92.30
2019-05-23T01:26:45.888Z,92.20
2019-05-23T01:29:14.682Z,92.10
2019-05-23T01:31:45.027Z,92.10
2019-05-23T01:34:15.311Z,92.10
2019-05-23T01:36:45.868Z,92.10
2019-05-23T01:39:15.266Z,91.90
2019-05-23T01:41:44.010Z,91.90
2019-05-23T01:44:12.972Z,91.70
2019-05-23T01:46:42.784Z,91.70
2019-05-23T01:49:12.132Z,91.70
2019-05-23T01:51:40.553Z,91.70
2019-05-23T01:54:09.707Z,91.90
2019-05-23T01:56:39.359Z,91.80
2019-05-23T01:59:08.286Z,91.80
2019-05-23T02:01:39.024Z,91.80
2019-05-23T02:04:08.280Z,91.60
2019-05-23T02:06:36.990Z,91.50
2019-05-23T02:09:08.627Z,91.50
2019-05-23T02:11:38.025Z,91.30
2019-05-23T02:14:07.951Z,91.00
2019-05-23T02:16:37.973Z,90.90
2019-05-23T02:19:07.622Z,90.90
2019-05-23T02:21:36.945Z,90.90
2019-05-23T02:24:07.129Z,91.10
2019-05-23T02:26:37.152Z,91.10
2019-05-23T02:29:06.248Z,91.10
2019-05-23T02:31:36.204Z,91.20
2019-05-23T02:34:05.364Z,91.30
2019-05-23T02:36:35.204Z,91.30
2019-05-23T02:39:24.962Z,91.10
2019-05-23T02:41:58.643Z,90.90
2019-05-23T02:44:28.849Z,91.20
2019-05-23T02:47:03.579Z,91.30
2019-05-23T02:49:33.922Z,91.40
2019-05-23T02:52:05.783Z,91.60
2019-05-23T02:54:37.459Z,91.70
2019-05-23T02:57:07.315Z,91.40
2019-05-23T02:59:48.622Z,91.30
2019-05-23T03:02:30.659Z,91.20
2019-05-23T03:05:00.024Z,91.30
2019-05-23T03:07:33.122Z,91.20
2019-05-23T03:10:02.485Z,91.10
2019-05-23T03:12:31.475Z,90.90
2019-05-23T03:15:00.995Z,90.90
2019-05-23T03:17:33.099Z,90.60
2019-05-23T03:20:05.902Z,90.60
2019-05-23T03:22:44.345Z,90.50
2019-05-23T03:25:21.816Z,90.50
2019-05-23T03:27:50.722Z,90.30
2019-05-23T03:30:24.386Z,90.30
2019-05-23T03:32:55.393Z,90.20
2019-05-23T03:35:34.672Z,90.10
2019-05-23T03:38:03.590Z,90.10
2019-05-23T03:40:35.111Z,89.80
2019-05-23T03:43:05.212Z,89.50
2019-05-23T03:45:39.523Z,89.40
2019-05-23T03:48:07.128Z,90.00
2019-05-23T03:50:35.611Z,90.00
2019-05-23T03:53:06.334Z,90.10
2019-05-23T03:55:37.232Z,90.00
2019-05-23T03:58:06.009Z,90.00
2019-05-23T04:00:36.907Z,90.10
2019-05-23T04:03:05.640Z,90.40
2019-05-23T04:05:34.882Z,90.40
2019-05-23T04:08:04.645Z,90.50
2019-05-23T04:10:33.431Z,90.40
2019-05-23T04:13:02.242Z,90.20
2019-05-23T04:15:30.755Z,90.40
2019-05-23T04:17:59.176Z,90.70
2019-05-23T04:20:27.971Z,90.80
2019-05-23T04:22:56.637Z,90.70
2019-05-23T04:25:25.249Z,90.90
2019-05-23T04:27:55.216Z,91.10
2019-05-23T04:30:24.073Z,91.10
2019-05-23T04:32:52.668Z,90.60
2019-05-23T04:35:21.206Z,90.60
2019-05-23T04:37:50.511Z,90.90
2019-05-23T04:40:18.970Z,91.00
2019-05-23T04:42:47.595Z,91.00
2019-05-23T04:45:16.460Z,90.70
2019-05-23T04:47:45.548Z,90.90
2019-05-23T04:50:16.385Z,90.90
2019-05-23T04:52:45.092Z,91.00
2019-05-23T04:55:15.296Z,90.80
2019-05-23T04:57:44.152Z,90.60
2019-05-23T05:00:16.064Z,90.50
2019-05-23T05:02:47.193Z,90.40
2019-05-23T05:05:16.618Z,90.40
2019-05-23T05:07:45.311Z,90.30
2019-05-23T05:10:17.159Z,90.50
2019-05-23T05:12:45.702Z,90.60
2019-05-23T05:15:14.801Z,90.60
2019-05-23T05:17:43.586Z,90.60
2019-05-23T05:20:12.858Z,90.40
2019-05-23T05:22:41.982Z,90.30
2019-05-23T05:25:10.664Z,90.30
2019-05-23T05:27:40.619Z,90.20
2019-05-23T05:30:10.967Z,90.30
2019-05-23T05:32:44.589Z,90.10
2019-05-23T05:35:11.646Z,90.10
2019-05-23T05:37:40.204Z,90.10
2019-05-23T05:40:09.594Z,89.80
2019-05-23T05:42:39.184Z,89.30
2019-05-23T05:45:09.208Z,86.90
2019-05-23T05:47:39.783Z,85.50
2019-05-23T05:50:13.871Z,85.30
2019-05-23T05:52:42.842Z,84.30
2019-05-23T05:55:12.075Z,83.90
2019-05-23T05:57:40.739Z,73.70
2019-05-23T06:00:13.497Z,73.80
2019-05-23T06:02:42.728Z,73.70
2019-05-23T06:05:13.018Z,71.40
2019-05-23T06:07:42.183Z,67.00
2019-05-23T06:10:12.806Z,65.90
2019-05-23T06:12:41.548Z,63.80
2019-05-23T06:15:10.811Z,61.10
2019-05-23T06:17:39.699Z,61.90
2019-05-23T06:20:08.973Z,60.30
2019-05-23T06:22:40.698Z,49.50
2019-05-23T06:25:11.344Z,50.30
2019-05-23T06:27:40.708Z,53.30
2019-05-23T06:30:12.549Z,50.50
2019-05-23T06:32:41.216Z,47.00
2019-05-23T06:35:10.160Z,43.10
2019-05-23T06:37:39.763Z,40.50
2019-05-23T06:40:11.674Z,44.50
2019-05-23T06:42:40.137Z,36.60
2019-05-23T06:45:11.663Z,38.40
2019-05-23T06:47:40.555Z,40.30
2019-05-23T06:50:15.913Z,38.90
2019-05-23T06:52:46.549Z,36.40
2019-05-23T06:55:15.053Z,34.70
2019-05-23T06:57:45.388Z,35.30
2019-05-23T07:00:17.090Z,34.30
2019-05-23T07:02:47.707Z,33.80
2019-05-23T07:05:18.210Z,34.00
2019-05-23T07:07:47.488Z,32.90
2019-05-23T07:10:16.561Z,30.90
2019-05-23T07:12:45.401Z,33.80
2019-05-23T07:15:13.839Z,32.70
2019-05-23T07:17:42.715Z,32.60
2019-05-23T07:20:12.163Z,32.60
2019-05-23T07:22:41.119Z,30.60
2019-05-23T07:25:10.558Z,32.10
2019-05-23T07:27:39.648Z,32.20
2019-05-23T07:30:23.470Z,30.80
2019-05-23T07:32:53.438Z,30.20
2019-05-23T07:35:23.092Z,32.00
2019-05-23T07:37:51.508Z,32.90
2019-05-23T07:40:21.465Z,29.70
2019-05-23T07:42:50.208Z,29.90
2019-05-23T07:45:26.459Z,29.90
2019-05-23T07:47:55.143Z,29.30
2019-05-23T07:50:25.545Z,29.50
2019-05-23T07:52:56.672Z,28.20
2019-05-23T07:55:26.747Z,30.00
2019-05-23T07:57:56.900Z,29.40
2019-05-23T08:00:33.054Z,29.20
2019-05-23T08:03:05.749Z,27.80
2019-05-23T08:05:35.032Z,28.20
2019-05-23T08:08:04.762Z,30.80
2019-05-23T08:10:34.528Z,29.10
2019-05-23T08:13:03.348Z,29.10
2019-05-23T08:15:33.332Z,28.50
2019-05-23T08:18:01.823Z,30.00
2019-05-23T08:20:30.266Z,27.80
2019-05-23T08:22:58.955Z,30.00
2019-05-23T08:25:27.536Z,29.50
2019-05-23T08:27:55.979Z,27.90
2019-05-23T08:30:24.583Z,28.40
2019-05-23T08:32:53.152Z,29.20
2019-05-23T08:35:22.303Z,29.50
2019-05-23T08:37:50.890Z,29.30
2019-05-23T08:40:22.341Z,27.80
2019-05-23T08:42:51.848Z,28.60
2019-05-23T08:45:21.315Z,29.80
2019-05-23T08:47:49.755Z,28.20
2019-05-23T08:50:21.099Z,27.30
2019-05-23T08:52:49.613Z,29.50
2019-05-23T08:55:23.914Z,27.90
2019-05-23T08:57:54.682Z,29.20
2019-05-23T09:00:26.101Z,29.00
2019-05-23T09:02:58.529Z,28.70
2019-05-23T09:05:27.535Z,29.00
2019-05-23T09:07:55.982Z,28.40
2019-05-23T09:10:25.607Z,30.30
2019-05-23T09:12:55.697Z,28.40
2019-05-23T09:15:24.356Z,29.40
2019-05-23T09:17:54.290Z,29.60
2019-05-23T09:20:24.742Z,28.40
2019-05-23T09:22:54.736Z,29.00
2019-05-23T09:25:23.402Z,28.20
2019-05-23T09:27:53.402Z,27.90
2019-05-23T09:30:25.004Z,28.30
2019-05-23T09:32:53.490Z,28.00
2019-05-23T09:35:22.477Z,28.50
2019-05-23T09:37:51.225Z,28.00
2019-05-23T09:40:20.500Z,30.10
2019-05-23T09:42:49.108Z,30.40
2019-05-23T09:45:18.192Z,28.60
2019-05-23T09:47:51.103Z,29.70
2019-05-23T09:50:19.431Z,29.00
2019-05-23T09:52:49.481Z,31.60
2019-05-23T09:55:18.049Z,30.70
2019-05-23T09:57:46.467Z,31.20
2019-05-23T10:00:19.574Z,28.90
2019-05-23T10:02:48.082Z,28.30
2019-05-23T10:05:18.226Z,28.20
2019-05-23T10:07:46.729Z,27.80
2019-05-23T10:10:17.179Z,29.10
2019-05-23T10:12:45.761Z,31.00
2019-05-23T10:15:16.793Z,30.20
2019-05-23T10:17:45.216Z,28.50
2019-05-23T10:20:14.878Z,28.80
2019-05-23T10:22:44.834Z,28.00
2019-05-23T10:25:13.543Z,28.30
2019-05-23T10:27:41.975Z,27.10
2019-05-23T10:30:12.493Z,27.80
2019-05-23T10:32:40.983Z,28.70
2019-05-23T10:35:09.842Z,28.50
2019-05-23T10:37:38.403Z,29.80
2019-05-23T10:40:07.605Z,30.70
2019-05-23T10:42:38.808Z,29.20
2019-05-23T10:45:08.782Z,29.10
2019-05-23T10:47:37.853Z,28.10
2019-05-23T10:50:09.446Z,28.70
2019-05-23T10:52:38.023Z,29.50
2019-05-23T10:55:08.074Z,29.30
2019-05-23T10:57:36.833Z,29.70
2019-05-23T11:00:06.622Z,28.80
2019-05-23T11:02:36.293Z,30.10
2019-05-23T11:05:12.802Z,29.20
2019-05-23T11:07:38.285Z,28.30
2019-05-23T11:10:07.764Z,28.60
2019-05-23T11:12:36.195Z,28.00
2019-05-23T11:15:06.626Z,28.70
2019-05-23T11:17:36.103Z,30.00
2019-05-23T11:20:10.736Z,30.20
2019-05-23T11:22:39.368Z,27.20
2019-05-23T11:25:10.532Z,27.50
2019-05-23T11:27:39.019Z,29.70
2019-05-23T11:30:11.223Z,29.70
2019-05-23T11:32:39.813Z,28.50
2019-05-23T11:35:08.682Z,29.40
2019-05-23T11:37:37.196Z,29.20
2019-05-23T11:40:07.832Z,29.90
2019-05-23T11:42:38.504Z,28.40
2019-05-23T11:45:07.568Z,28.60
2019-05-23T11:47:36.384Z,28.10
2019-05-23T11:50:07.628Z,29.20
2019-05-23T11:52:37.629Z,30.10
2019-05-23T11:55:07.540Z,30.20
2019-05-23T11:57:38.169Z,29.40
2019-05-23T12:00:10.476Z,28.60
2019-05-23T12:02:43.694Z,28.10
2019-05-23T12:05:14.748Z,29.20
2019-05-23T12:07:43.332Z,28.60
2019-05-23T12:10:13.424Z,27.90
2019-05-23T12:12:42.020Z,29.80
2019-05-23T12:15:13.728Z,28.60
2019-05-23T12:17:44.020Z,28.60
2019-05-23T12:20:13.454Z,30.10
2019-05-23T12:22:42.501Z,30.80
2019-05-23T12:25:21.750Z,31.20
2019-05-23T12:27:42.066Z,28.20
2019-05-23T12:30:13.339Z,28.30
2019-05-23T12:32:42.015Z,29.20
2019-05-23T12:35:12.123Z,30.00
2019-05-23T12:37:40.891Z,30.90
2019-05-23T12:40:11.141Z,29.60
2019-05-23T12:42:41.231Z,28.30
2019-05-23T12:45:11.949Z,30.90
2019-05-23T12:47:57.217Z,31.60
2019-05-23T12:50:31.991Z,31.40
2019-05-23T12:53:00.500Z,29.60
2019-05-23T12:55:29.014Z,30.00
2019-05-23T12:57:59.182Z,30.00
2019-05-23T13:00:29.443Z,29.30
2019-05-23T13:02:58.076Z,30.00
2019-05-23T13:05:26.975Z,29.80
2019-05-23T13:07:56.856Z,30.40
2019-05-23T13:10:26.675Z,29.00
2019-05-23T13:12:55.106Z,28.80
2019-05-23T13:15:24.619Z,28.80
2019-05-23T13:17:53.038Z,28.80
2019-05-23T13:20:21.732Z,29.30
2019-05-23T13:22:50.277Z,29.30
2019-05-23T13:25:18.890Z,29.50
2019-05-23T13:27:47.528Z,30.40
2019-05-23T13:30:16.515Z,28.90
2019-05-23T13:32:44.986Z,28.40
2019-05-23T13:35:15.075Z,27.90
2019-05-23T13:37:53.252Z,30.10
2019-05-23T13:40:14.604Z,29.70
2019-05-23T13:42:43.507Z,30.00
2019-05-23T13:45:12.525Z,30.50
2019-05-23T13:47:41.035Z,29.60
2019-05-23T13:50:10.159Z,28.70
2019-05-23T13:52:39.448Z,30.70
2019-05-23T13:55:09.756Z,30.20
2019-05-23T13:57:38.175Z,30.00
2019-05-23T14:00:07.584Z,28.50
2019-05-23T14:02:36.386Z,28.70
2019-05-23T14:05:07.522Z,28.50
2019-05-23T14:07:36.763Z,29.70
2019-05-23T14:10:09.944Z,29.30
2019-05-23T14:12:38.978Z,29.50
2019-05-23T14:15:10.572Z,28.60
2019-05-23T14:17:40.858Z,28.10
2019-05-23T14:20:10.028Z,29.10
2019-05-23T14:22:40.292Z,28.30
2019-05-23T14:25:09.056Z,27.50
2019-05-23T14:27:51.033Z,27.70
2019-05-23T14:30:30.330Z,27.80
2019-05-23T14:33:01.227Z,27.70
2019-05-23T14:35:31.628Z,28.10
2019-05-23T14:38:04.796Z,28.30
2019-05-23T14:40:33.346Z,28.50
2019-05-23T14:43:15.550Z,28.00
2019-05-23T14:45:55.057Z,27.80
2019-05-23T14:48:41.441Z,28.70
2019-05-23T14:51:24.205Z,27.70
2019-05-23T14:54:04.312Z,28.10
2019-05-23T14:56:34.614Z,26.90
2019-05-23T14:59:03.402Z,27.20
2019-05-23T15:01:33.465Z,27.10
2019-05-23T15:04:02.476Z,27.50
2019-05-23T15:06:31.396Z,27.50
2019-05-23T15:08:59.925Z,26.90
2019-05-23T15:11:28.773Z,27.00
2019-05-23T15:13:57.283Z,26.40
2019-05-23T15:16:25.995Z,26.40
2019-05-23T15:18:54.527Z,26.50
2019-05-23T15:21:23.337Z,25.70
2019-05-23T15:23:52.043Z,26.50
2019-05-23T15:26:23.872Z,26.30
2019-05-23T15:28:52.992Z,25.80
2019-05-23T15:31:21.481Z,25.70
2019-05-23T15:33:50.228Z,26.50
2019-05-23T15:36:19.144Z,26.70
2019-05-23T15:38:47.765Z,25.70
2019-05-23T15:41:16.367Z,26.50
2019-05-23T15:43:44.880Z,25.20
2019-05-23T15:46:13.382Z,26.50
2019-05-23T15:48:41.898Z,26.10
2019-05-23T15:51:12.116Z,26.40
2019-05-23T15:53:42.250Z,25.90
2019-05-23T15:56:28.053Z,26.00
2019-05-23T15:58:56.570Z,26.40
2019-05-23T16:01:35.893Z,24.90
2019-05-23T16:04:06.651Z,25.10
2019-05-23T16:06:36.628Z,26.10
2019-05-23T16:09:25.649Z,26.10
2019-05-23T16:11:39.958Z,25.80
2019-05-23T16:14:08.733Z,25.50
2019-05-23T16:16:37.403Z,25.40
2019-05-23T16:19:06.282Z,25.40
2019-05-23T16:21:34.896Z,25.30
2019-05-23T16:24:04.547Z,25.20
2019-05-23T16:26:34.641Z,25.30
2019-05-23T16:29:03.858Z,25.50
2019-05-23T16:31:32.375Z,25.40
2019-05-23T16:34:00.808Z,25.10
2019-05-23T16:36:30.806Z,25.40
2019-05-23T16:38:59.306Z,25.40
2019-05-23T16:41:27.875Z,25.20
2019-05-23T16:43:56.290Z,25.10
2019-05-23T16:46:26.391Z,25.40
2019-05-23T16:48:55.023Z,25.50
2019-05-23T16:51:23.786Z,25.50
2019-05-23T16:53:52.646Z,25.10
2019-05-23T16:56:25.307Z,25.80
2019-05-23T16:59:02.956Z,25.50
2019-05-23T17:01:31.846Z,25.20
2019-05-23T17:04:11.214Z,24.80
2019-05-23T17:06:41.352Z,24.70
2019-05-23T17:09:17.216Z,24.90
2019-05-23T17:11:47.616Z,24.70
2019-05-23T17:14:20.489Z,24.20
2019-05-23T17:17:09.129Z,24.90
2019-05-23T17:19:42.433Z,25.20
2019-05-23T17:22:30.938Z,25.50
2019-05-23T17:25:09.664Z,25.40
2019-05-23T17:27:52.555Z,25.40
2019-05-23T17:30:22.646Z,25.80
2019-05-23T17:32:52.953Z,25.50
2019-05-23T17:35:21.516Z,25.20
2019-05-23T17:37:50.063Z,25.20
2019-05-23T17:40:25.098Z,25.00
2019-05-23T17:42:49.167Z,25.40
2019-05-23T17:45:18.129Z,25.80
2019-05-23T17:47:47.056Z,25.10
2019-05-23T17:50:15.577Z,24.70
2019-05-23T17:52:44.166Z,25.20
2019-05-23T17:55:13.065Z,26.40
2019-05-23T17:57:43.122Z,26.70
2019-05-23T18:00:14.407Z,25.90
2019-05-23T18:02:42.913Z,26.00
2019-05-23T18:05:12.400Z,26.10
2019-05-23T18:07:42.533Z,26.00
2019-05-23T18:10:12.195Z,26.10
2019-05-23T18:12:40.631Z,26.10
2019-05-23T18:15:11.575Z,26.20
2019-05-23T18:17:40.142Z,26.00
2019-05-23T18:20:09.494Z,26.00
2019-05-23T18:22:38.543Z,25.90
2019-05-23T18:25:09.076Z,25.90
2019-05-23T18:27:38.223Z,26.20
2019-05-23T18:30:10.220Z,26.50
2019-05-23T18:32:39.418Z,26.70
2019-05-23T18:35:09.963Z,27.00
2019-05-23T18:37:38.827Z,27.10
2019-05-23T18:40:08.218Z,27.80
2019-05-23T18:42:36.923Z,28.40
2019-05-23T18:45:09.332Z,28.40
2019-05-23T18:47:45.352Z,28.70
2019-05-23T18:50:16.481Z,28.60
2019-05-23T18:52:45.180Z,28.60
2019-05-23T18:55:14.989Z,28.70
2019-05-23T18:57:43.607Z,28.30
2019-05-23T19:00:13.797Z,28.30
2019-05-23T19:02:42.467Z,28.50
2019-05-23T19:05:11.507Z,28.80
2019-05-23T19:07:41.081Z,29.90
2019-05-23T19:10:11.415Z,30.00
2019-05-23T19:12:41.744Z,30.00
2019-05-23T19:15:11.381Z,31.40
2019-05-23T19:17:39.995Z,30.00
2019-05-23T19:20:08.585Z,30.50
2019-05-23T19:22:37.382Z,30.30
2019-05-23T19:25:08.032Z,30.60
2019-05-23T19:27:36.891Z,30.80
2019-05-23T19:30:06.827Z,31.10
2019-05-23T19:32:35.296Z,31.10
2019-05-23T19:35:05.724Z,32.00
2019-05-23T19:37:34.239Z,31.70
2019-05-23T19:40:02.798Z,32.70
2019-05-23T19:42:31.758Z,32.70
2019-05-23T19:45:00.668Z,33.20
2019-05-23T19:47:29.403Z,33.90
2019-05-23T19:49:57.973Z,33.80
2019-05-23T19:52:26.713Z,34.00
2019-05-23T19:54:55.541Z,34.90
2019-05-23T19:57:24.713Z,34.80
2019-05-23T19:59:53.321Z,35.30
2019-05-23T20:02:26.540Z,35.70
2019-05-23T20:04:56.871Z,36.30
2019-05-23T20:07:25.753Z,36.70
2019-05-23T20:09:57.469Z,37.00
2019-05-23T20:12:27.798Z,37.30
2019-05-23T20:14:56.317Z,37.70
2019-05-23T20:17:26.336Z,37.80
2019-05-23T20:19:54.792Z,37.60
2019-05-23T20:22:25.092Z,38.20
2019-05-23T20:24:53.558Z,38.00
2019-05-23T20:27:23.547Z,39.60
2019-05-23T20:29:52.177Z,40.00
2019-05-23T20:32:20.824Z,42.10
2019-05-23T20:34:49.281Z,42.30
2019-05-23T20:37:20.182Z,42.40
2019-05-23T20:39:48.639Z,42.10
2019-05-23T20:42:17.081Z,43.80
2019-05-23T20:44:45.703Z,44.40
2019-05-23T20:47:14.504Z,44.40
2019-05-23T20:49:43.214Z,45.80
2019-05-23T20:52:12.519Z,46.40
2019-05-23T20:54:41.014Z,45.00
2019-05-23T20:57:09.515Z,47.00
2019-05-23T20:59:38.499Z,48.00
2019-05-23T21:02:07.192Z,48.10
2019-05-23T21:04:36.076Z,49.30
2019-05-23T21:07:04.563Z,48.70
2019-05-23T21:09:33.055Z,50.70
2019-05-23T21:12:03.152Z,52.80
2019-05-23T21:14:33.536Z,52.30
2019-05-23T21:17:02.193Z,52.40
2019-05-23T21:19:30.777Z,52.50
2019-05-23T21:21:59.378Z,52.60
2019-05-23T21:24:29.537Z,53.60
2019-05-23T21:27:00.807Z,55.50
2019-05-23T21:29:29.291Z,55.60
2019-05-23T21:31:59.320Z,55.20
2019-05-23T21:34:27.752Z,55.40
2019-05-23T21:36:56.192Z,56.80
2019-05-23T21:39:24.692Z,58.50
2019-05-23T21:41:53.509Z,58.10
2019-05-23T21:44:22.011Z,58.10
2019-05-23T21:46:50.820Z,57.40
2019-05-23T21:49:19.238Z,57.30
2019-05-23T21:51:47.682Z,58.20
2019-05-23T21:54:16.141Z,58.90
2019-05-23T21:56:44.675Z,59.50
2019-05-23T21:59:13.147Z,59.90
2019-05-23T22:01:45.884Z,60.10
2019-05-23T22:04:16.232Z,60.40
2019-05-23T22:06:46.493Z,60.60
2019-05-23T22:09:15.344Z,60.50
2019-05-23T22:11:43.869Z,60.70
2019-05-23T22:14:12.530Z,60.80
2019-05-23T22:16:41.002Z,60.90
2019-05-23T22:19:11.247Z,61.60
2019-05-23T22:21:39.839Z,61.10
2019-05-23T22:24:09.108Z,61.30
2019-05-23T22:26:37.763Z,61.20
2019-05-23T22:29:06.928Z,61.20
2019-05-23T22:31:36.000Z,61.70
2019-05-23T22:34:09.304Z,62.20
2019-05-23T22:36:37.798Z,62.00
2019-05-23T22:39:08.437Z,62.20
2019-05-23T22:41:37.552Z,62.40
2019-05-23T22:44:08.212Z,63.30
2019-05-23T22:46:36.670Z,63.60
2019-05-23T22:49:05.126Z,63.40
2019-05-23T22:51:33.678Z,63.10
2019-05-23T22:54:02.396Z,63.40
2019-05-23T22:56:30.908Z,63.40
2019-05-23T22:58:59.420Z,63.20
2019-05-23T23:01:29.780Z,63.00
2019-05-23T23:03:58.215Z,63.60
2019-05-23T23:06:27.212Z,64.30
2019-05-23T23:08:55.738Z,64.40
2019-05-23T23:11:24.226Z,65.00
2019-05-23T23:13:52.934Z,64.00
2019-05-23T23:16:21.363Z,64.20
2019-05-23T23:18:49.869Z,63.80
2019-05-23T23:21:18.292Z,64.10
2019-05-23T23:23:48.303Z,64.20
2019-05-23T23:26:16.799Z,63.70
2019-05-23T23:28:45.251Z,63.80
2019-05-23T23:31:13.750Z,64.10
2019-05-23T23:33:42.193Z,64.50
2019-05-23T23:36:10.688Z,74.40
2019-05-23T23:38:40.662Z,75.00
2019-05-23T23:41:09.388Z,75.30
2019-05-23T23:43:37.811Z,74.70
2019-05-23T23:46:24.515Z,75.60
2019-05-23T23:49:11.131Z,75.60
2019-05-23T23:51:57.758Z,76.50
2019-05-23T23:54:44.230Z,77.10
2019-05-23T23:57:31.215Z,76.90
